Star Epsilon — V7NZ7 — position and weather

sailwx.info

Track history (hours):
 
Tides and Currents Weather Stations Pressure Air Temp Water Temp Dewpoint Dewpoint Depression Visibility Wind Speed Wind Dir Waves Ship Positions

Star Epsilon

Last reported at 2017-Oct-21 16:06 UTC. Time now 2017-Dec-15 18:09 UTC.
Position N 16°24' W 062°22'.
Warning: this ship's position is 55 days out of date.

Length 189 m; draft 11.9 m.

Type: Ship. MMSI: 538003043.

Date/timePositionNaut miles runAvg speedWind from/ knotsBaromVisibWave heightAir tempDewpointWater temp
2017-Oct-21 16:06N 16°24' W 062°22'112.8
2017-Oct-21 16:00N 16°25' W 062°21'612.8
2017-Oct-21 15:30N 16°27' W 062°15'612.4
2017-Oct-21 15:00N 16°29' W 062°09'612.3
2017-Oct-21 14:30N 16°32' W 062°03'1212.1
2017-Oct-21 13:30N 16°37' W 061°51'612.0
2017-Oct-21 13:00N 16°39' W 061°45'611.9
2017-Oct-21 12:30N 16°41' W 061°40'612.1
2017-Oct-21 12:00N 16°43' W 061°34'612.3
2017-Oct-21 11:30N 16°45' W 061°28'612.6
2017-Oct-21 11:00N 16°48' W 061°22'612.5
2017-Oct-21 10:30N 16°50' W 061°16'612.7
2017-Oct-21 10:00N 16°52' W 061°09'612.7
2017-Oct-21 09:30N 16°54' W 061°03'  
Track history (hours):
 
Tides and Currents Weather Stations Pressure Air Temp Water Temp Dewpoint Dewpoint Depression Visibility Wind Speed Wind Dir Waves Ship Positions

Star Epsilon

Last reported at 2017-Oct-21 16:06 UTC. Time now 2017-Dec-15 18:09 UTC.
Position N 16°24' W 062°22'.
Warning: this ship's position is 55 days out of date.

Length 189 m; draft 11.9 m.

Type: Ship. MMSI: 538003043.

Date/timePositionNaut miles runAvg speedWind from/ knotsBaromVisibWave heightAir tempDewpointWater temp
2017-Oct-21 16:06N 16°24' W 062°22'112.8
2017-Oct-21 16:00N 16°25' W 062°21'612.8
2017-Oct-21 15:30N 16°27' W 062°15'612.4
2017-Oct-21 15:00N 16°29' W 062°09'612.3
2017-Oct-21 14:30N 16°32' W 062°03'1212.1
2017-Oct-21 13:30N 16°37' W 061°51'612.0
2017-Oct-21 13:00N 16°39' W 061°45'611.9
2017-Oct-21 12:30N 16°41' W 061°40'612.1
2017-Oct-21 12:00N 16°43' W 061°34'612.3
2017-Oct-21 11:30N 16°45' W 061°28'612.6
2017-Oct-21 11:00N 16°48' W 061°22'612.5
2017-Oct-21 10:30N 16°50' W 061°16'612.7
2017-Oct-21 10:00N 16°52' W 061°09'612.7
2017-Oct-21 09:30N 16°54' W 061°03'  

Dump ship's entire track history